OIBL  Bandar Lengeh  Airport

Bandar Lengeh, Iran

Add Bookmark
ICAO OIBL
IATA BDH
Type Airport
Status Operational
Latitude
26° 31' 55" N
26.532000
Longitude
54° 49' 29" E
54.824799
Local (GMT +3.5 ) UTC
Sep 26, 2016 08:45 pm Sep 26, 2016 17:15
Sunrise-Sunset Local UTC
Begin Civil Twilight 05:16 am 01:46
Sunrise 05:40 am 02:10
Sunset 05:43 pm 14:13
End Civil Twilight 06:06 pm 14:36
VFR
VFR
MVFR
MVFR
IFR
IFR
LIFR
LIFR
Unknown
Unavailable

Current Weather

METAR Observed MVFR
OIBL 261700Z 28006KT 8000 NSC 32/26 Q1006 Mon, Sep 26, 2016 @ 17:00 UTC
(15 Minutes ago)
Marginal Visual Flight Rules
Wind Visibility Conditions
280° at 6 knots (11 kph) 7,998 m
  • No significant weather
Temperatures Readings Precipitation
Current Temp
32°C
90°F
Dewpoint
26°C
79°F
Heat Index
42°C
107°
Humidity 71%
Altimeter 29.7" Hg
Sea Level Pressure 1,006 mb
Field Elevation
14 m
46 ft
None Recorded

Additional weather within a 92.6km radius of OIBL

Map ICAO Location
OIBS 74.8km S/SW (202°)
OIBA 75.9km S/SE (164°)
VFR
VFR
MVFR
MVFR
IFR
IFR
LIFR
LIFR
Unknown
Unavailable
-
-

CheckWX.com is intended as a tool to help pilots better visualize weather data. It is not intended as a substitute for an official weather briefing obtained from a Flight Service Station. CheckWX.com does not meet the FAA requirements for an official pre-flight weather briefing. Therefore, it's important that pilots still call and obtain an official FSS pre-flight weather briefing.

© 2007-2016 CheckWX.com
17:15:49 UTC